Here is the Quick Look data you requested

The Data originates at the National Weather Service, and is made available here by the UAlbany Department of Atmospheric and Environmental Sciences

Surface Observations

KBID 171556Z AUTO 02008KT 10SM CLR 11/01 A3030 RMK AO2 SLP264 T01110011=
KOQU 171550Z 05007KT 15SM SKC 12/M02 A3029=
KPVD 171551Z VRB04KT 10SM FEW045 FEW300 11/00 A3029 RMK AO2 SLP259 T01110000=
KSFZ 171556Z AUTO VRB04KT 10SM CLR 10/M02 A3028 RMK AO2 SLP203 T01001017=
KUUU 171553Z AUTO 01008KT 10SM CLR 11/01 A3028 RMK AO2 SLP253 T01110011=
KWST 171553Z AUTO 36006KT 10SM CLR 12/M01 A3030 RMK AO2 SLP260 T01171006=